createdAt,value
2018-09-25T00:00:41.241Z,0
2018-09-25T00:01:41.197Z,0
2018-09-25T00:02:41.360Z,0
2018-09-25T00:03:41.464Z,0
2018-09-25T00:04:41.612Z,0
2018-09-25T00:05:41.706Z,0
2018-09-25T00:06:41.734Z,0
2018-09-25T00:07:41.896Z,0
2018-09-25T00:08:43.010Z,0
2018-09-25T00:09:42.139Z,0
2018-09-25T00:10:42.199Z,0
2018-09-25T00:11:42.431Z,0
2018-09-25T00:12:42.365Z,0
2018-09-25T00:13:42.409Z,0
2018-09-25T00:14:42.522Z,0
2018-09-25T00:15:42.554Z,0
2018-09-25T00:16:42.468Z,0
2018-09-25T00:17:42.578Z,0
2018-09-25T00:18:42.713Z,0
2018-09-25T00:19:42.843Z,0
2018-09-25T00:20:42.977Z,0
2018-09-25T00:21:43.022Z,0
2018-09-25T00:22:43.108Z,0
2018-09-25T00:23:43.152Z,0
2018-09-25T00:24:43.358Z,0
2018-09-25T00:25:43.481Z,0
2018-09-25T00:26:43.357Z,0
2018-09-25T00:27:43.345Z,0
2018-09-25T00:28:43.539Z,0
2018-09-25T00:29:43.593Z,0
2018-09-25T00:30:43.692Z,0
2018-09-25T00:31:43.627Z,0
2018-09-25T00:32:43.701Z,0
2018-09-25T00:33:43.688Z,0
2018-09-25T00:34:43.830Z,0
2018-09-25T00:35:44.013Z,0
2018-09-25T00:36:44.000Z,0
2018-09-25T00:37:44.111Z,0
2018-09-25T00:38:44.261Z,0
2018-09-25T00:39:44.237Z,0
2018-09-25T00:40:44.300Z,0
2018-09-25T00:41:44.495Z,0
2018-09-25T00:42:44.451Z,0
2018-09-25T00:43:44.683Z,0
2018-09-25T00:44:44.631Z,0
2018-09-25T00:45:44.708Z,0
2018-09-25T00:46:44.748Z,0
2018-09-25T00:47:45.056Z,0
2018-09-25T00:48:44.902Z,0
2018-09-25T00:49:44.995Z,0
2018-09-25T00:50:45.159Z,0
2018-09-25T00:51:45.155Z,1
2018-09-25T00:52:45.124Z,1
2018-09-25T00:53:45.199Z,1
2018-09-25T00:54:45.471Z,1
2018-09-25T00:55:45.310Z,1
2018-09-25T00:56:45.422Z,1
2018-09-25T00:57:45.533Z,0
2018-09-25T00:58:45.668Z,1
2018-09-25T00:59:45.662Z,1
2018-09-25T01:00:45.753Z,1
2018-09-25T01:01:45.928Z,1
2018-09-25T01:02:45.856Z,1
2018-09-25T01:03:45.848Z,1
2018-09-25T01:05:46.278Z,0
2018-09-25T01:06:46.061Z,0
2018-09-25T01:07:46.096Z,0
2018-09-25T01:08:46.221Z,0
2018-09-25T01:09:46.312Z,0
2018-09-25T01:10:46.411Z,0
2018-09-25T01:11:47.455Z,0
2018-09-25T01:12:46.546Z,0
2018-09-25T01:13:46.690Z,0
2018-09-25T01:14:46.860Z,0
2018-09-25T01:15:46.753Z,0
2018-09-25T01:16:46.882Z,0
2018-09-25T01:17:46.983Z,0
2018-09-25T01:18:47.258Z,0
2018-09-25T01:19:47.206Z,0
2018-09-25T01:20:47.414Z,0
2018-09-25T01:21:47.397Z,0
2018-09-25T01:22:47.588Z,0
2018-09-25T01:23:47.477Z,0
2018-09-25T01:24:47.559Z,0
2018-09-25T01:25:47.737Z,0
2018-09-25T01:26:47.765Z,0
2018-09-25T01:27:47.890Z,0
2018-09-25T01:28:48.003Z,0
2018-09-25T01:29:48.145Z,0
2018-09-25T01:30:48.203Z,0
2018-09-25T01:31:48.260Z,0
2018-09-25T01:32:48.325Z,0
2018-09-25T01:33:48.524Z,0
2018-09-25T01:34:48.454Z,0
2018-09-25T01:35:48.573Z,0
2018-09-25T01:36:48.659Z,0
2018-09-25T01:37:48.749Z,1
2018-09-25T01:38:48.717Z,1
2018-09-25T01:39:48.749Z,1
2018-09-25T01:40:48.943Z,0
2018-09-25T01:41:48.909Z,0
2018-09-25T01:42:48.940Z,0
2018-09-25T01:43:48.951Z,0
2018-09-25T01:44:49.134Z,0
2018-09-25T01:45:49.123Z,0
2018-09-25T01:46:49.140Z,0
2018-09-25T01:47:50.225Z,0
2018-09-25T01:48:49.247Z,0
2018-09-25T01:49:49.268Z,0
2018-09-25T01:50:49.311Z,0
2018-09-25T01:51:49.486Z,0
2018-09-25T01:52:49.409Z,0
2018-09-25T01:53:49.564Z,0
2018-09-25T01:54:49.659Z,0
2018-09-25T01:55:49.891Z,0
2018-09-25T01:56:49.785Z,0
2018-09-25T01:58:49.893Z,0
2018-09-25T01:59:50.017Z,0
2018-09-25T02:00:50.154Z,0
2018-09-25T02:01:50.318Z,0
2018-09-25T02:02:50.416Z,0
2018-09-25T02:03:50.556Z,0
2018-09-25T02:04:50.497Z,0
2018-09-25T02:05:50.691Z,0
2018-09-25T02:06:50.771Z,0
2018-09-25T02:07:50.859Z,0
2018-09-25T02:08:51.002Z,0
2018-09-25T02:09:50.996Z,0
2018-09-25T02:10:51.098Z,0
2018-09-25T02:11:51.247Z,0
2018-09-25T02:12:51.395Z,0
2018-09-25T02:13:51.406Z,0
2018-09-25T02:14:51.506Z,0
2018-09-25T02:15:51.610Z,0
2018-09-25T02:16:51.640Z,0
2018-09-25T02:17:51.771Z,0
2018-09-25T02:18:51.851Z,0
2018-09-25T02:19:51.939Z,0
2018-09-25T02:20:51.963Z,0
2018-09-25T02:21:52.048Z,0
2018-09-25T02:22:52.079Z,0
2018-09-25T02:23:52.198Z,0
2018-09-25T02:25:52.287Z,0
2018-09-25T02:26:52.399Z,0
2018-09-25T02:27:52.496Z,0
2018-09-25T02:28:52.552Z,0
2018-09-25T02:29:52.669Z,0
2018-09-25T02:30:52.655Z,0
2018-09-25T02:31:52.879Z,0
2018-09-25T02:32:52.844Z,0
2018-09-25T02:33:52.848Z,0
2018-09-25T02:34:53.017Z,0
2018-09-25T02:35:52.975Z,0
2018-09-25T02:36:53.050Z,0
2018-09-25T02:37:53.150Z,0
2018-09-25T02:38:53.327Z,0
2018-09-25T02:39:53.272Z,0
2018-09-25T02:40:53.443Z,0
2018-09-25T02:41:53.545Z,0
2018-09-25T02:42:53.865Z,0
2018-09-25T02:43:53.807Z,0
2018-09-25T02:44:53.946Z,0
2018-09-25T02:45:53.995Z,0
2018-09-25T02:46:54.086Z,0
2018-09-25T02:47:54.146Z,0
2018-09-25T02:48:54.275Z,0
2018-09-25T02:49:54.377Z,0
2018-09-25T02:50:54.621Z,0
2018-09-25T02:51:54.563Z,0
2018-09-25T02:52:54.728Z,0
2018-09-25T02:53:54.869Z,0
2018-09-25T02:54:54.987Z,0
2018-09-25T02:55:55.087Z,0
2018-09-25T02:56:55.186Z,0
2018-09-25T02:57:55.310Z,0
2018-09-25T02:58:55.423Z,0
2018-09-25T02:59:55.352Z,0
2018-09-25T03:00:55.386Z,0
2018-09-25T03:01:55.454Z,0
2018-09-25T03:03:55.727Z,0
2018-09-25T03:04:55.759Z,0
2018-09-25T03:06:53.527Z,0
2018-09-25T03:07:53.504Z,1
2018-09-25T03:08:53.461Z,1
2018-09-25T03:09:53.464Z,1
2018-09-25T03:10:53.511Z,1
2018-09-25T03:11:53.588Z,1
2018-09-25T03:15:49.097Z,1
2018-09-25T03:16:05.032Z,1
2018-09-25T03:17:05.122Z,1
2018-09-25T03:18:05.243Z,1
2018-09-25T03:19:05.404Z,1
2018-09-25T03:20:05.397Z,1
2018-09-25T03:21:05.457Z,1
2018-09-25T03:22:05.583Z,1
2018-09-25T03:23:05.727Z,1
2018-09-25T03:24:05.790Z,1
2018-09-25T03:25:05.883Z,1
2018-09-25T03:28:00.906Z,1
2018-09-25T03:29:01.151Z,1
2018-09-25T03:30:01.117Z,1
2018-09-25T03:31:41.408Z,0
2018-09-25T03:32:41.533Z,1
2018-09-25T03:33:41.656Z,0
2018-09-25T03:34:41.619Z,1
2018-09-25T03:35:41.626Z,1
2018-09-25T03:36:42.732Z,0
2018-09-25T03:37:41.766Z,1
2018-09-25T03:38:41.909Z,1
2018-09-25T03:39:41.881Z,1
2018-09-25T03:40:42.031Z,1
2018-09-25T03:41:42.278Z,1
2018-09-25T03:42:42.212Z,0
2018-09-25T03:43:42.314Z,0
2018-09-25T03:44:42.404Z,0
2018-09-25T03:45:42.556Z,1
2018-09-25T03:46:42.534Z,1
2018-09-25T03:47:42.559Z,0
2018-09-25T03:48:42.710Z,0
2018-09-25T03:49:42.723Z,1
2018-09-25T03:50:42.735Z,0
2018-09-25T03:51:42.851Z,1
2018-09-25T03:52:42.975Z,1
2018-09-25T03:53:43.089Z,0
2018-09-25T03:54:43.116Z,0
2018-09-25T03:55:43.219Z,0
2018-09-25T03:56:43.477Z,1
2018-09-25T03:57:43.437Z,1
2018-09-25T03:58:43.572Z,1
2018-09-25T03:59:43.766Z,0
2018-09-25T04:00:43.921Z,1
2018-09-25T04:01:43.845Z,0
2018-09-25T04:02:43.922Z,1
2018-09-25T04:03:44.079Z,0
2018-09-25T04:04:44.288Z,0
2018-09-25T04:05:44.260Z,0
2018-09-25T04:06:44.253Z,0
2018-09-25T04:07:44.494Z,0
2018-09-25T04:08:44.453Z,0
2018-09-25T04:10:44.671Z,0
2018-09-25T04:11:44.793Z,0
2018-09-25T04:12:44.739Z,0
2018-09-25T04:13:44.773Z,0
2018-09-25T04:14:44.851Z,0
2018-09-25T04:15:45.037Z,0
2018-09-25T04:16:45.015Z,0
2018-09-25T04:17:45.027Z,0
2018-09-25T04:18:45.067Z,0
2018-09-25T04:19:45.215Z,0
2018-09-25T04:20:45.348Z,0
2018-09-25T04:21:45.235Z,0
2018-09-25T04:22:45.358Z,0
2018-09-25T04:23:45.487Z,0
2018-09-25T04:24:45.627Z,0
2018-09-25T04:25:45.614Z,0
2018-09-25T04:26:45.737Z,0
2018-09-25T04:27:45.851Z,0
2018-09-25T04:28:46.014Z,0
2018-09-25T04:29:46.003Z,0
2018-09-25T04:30:46.267Z,0
2018-09-25T04:31:46.213Z,0
2018-09-25T04:32:46.207Z,0
2018-09-25T04:33:46.340Z,0
2018-09-25T04:35:46.637Z,0
2018-09-25T04:36:46.561Z,0
2018-09-25T04:37:46.577Z,0
2018-09-25T04:38:46.706Z,0
2018-09-25T04:39:46.878Z,0
2018-09-25T04:40:46.877Z,0
2018-09-25T04:41:46.947Z,1
2018-09-25T04:42:47.129Z,0
2018-09-25T04:43:47.278Z,0
2018-09-25T04:44:47.249Z,0
2018-09-25T04:45:47.328Z,1
2018-09-25T04:46:47.523Z,1
2018-09-25T04:47:47.559Z,1
2018-09-25T04:48:47.592Z,1
2018-09-25T04:50:47.787Z,2
2018-09-25T04:51:47.664Z,2
2018-09-25T04:52:47.719Z,3
2018-09-25T04:53:47.813Z,3
2018-09-25T04:54:47.772Z,4
2018-09-25T04:55:47.828Z,4
2018-09-25T04:56:47.937Z,5
2018-09-25T04:57:48.224Z,6
2018-09-25T04:58:48.180Z,7
2018-09-25T04:59:48.313Z,9
2018-09-25T05:00:48.403Z,10
2018-09-25T05:01:48.465Z,13
2018-09-25T05:02:48.565Z,15
2018-09-25T05:03:48.724Z,18
2018-09-25T05:04:48.764Z,21
2018-09-25T05:05:48.812Z,24
2018-09-25T05:06:48.860Z,28
2018-09-25T05:07:49.138Z,32
2018-09-25T05:08:49.030Z,38
2018-09-25T05:09:49.027Z,43
2018-09-25T05:10:49.127Z,50
2018-09-25T05:11:49.090Z,56
2018-09-25T05:12:49.240Z,63
2018-09-25T05:14:49.507Z,78
2018-09-25T05:15:49.562Z,88
2018-09-25T05:16:49.639Z,95
2018-09-25T05:18:49.774Z,114
2018-09-25T05:19:49.823Z,125
2018-09-25T05:20:49.905Z,134
2018-09-25T05:21:49.966Z,145
2018-09-25T05:22:50.266Z,157
2018-09-25T05:23:50.173Z,167
2018-09-25T05:24:50.237Z,179
2018-09-25T05:25:50.363Z,192
2018-09-25T05:26:50.431Z,202
2018-09-25T05:27:50.522Z,216
2018-09-25T05:28:50.684Z,227
2018-09-25T05:29:50.813Z,236
2018-09-25T05:30:50.880Z,247
2018-09-25T05:31:51.033Z,262
2018-09-25T05:32:50.934Z,275
2018-09-25T05:33:51.242Z,283
2018-09-25T05:35:47.982Z,314
2018-09-25T05:36:47.993Z,316
2018-09-25T05:37:49.060Z,331
2018-09-25T05:38:48.315Z,339
2018-09-25T05:40:45.172Z,367
2018-09-25T05:41:45.232Z,370
2018-09-25T05:42:45.348Z,380
2018-09-25T05:43:45.448Z,391
2018-09-25T05:45:24.771Z,415
2018-09-25T05:46:24.917Z,418
2018-09-25T05:47:24.945Z,428
2018-09-25T05:48:25.101Z,431
2018-09-25T05:50:48.343Z,468
2018-09-25T05:51:48.407Z,476
2018-09-25T05:53:28.438Z,491
2018-09-25T05:55:27.532Z,507
2018-09-25T06:04:23.259Z,575
2018-09-25T06:05:05.444Z,586
2018-09-25T06:06:05.550Z,595
2018-09-25T06:07:05.717Z,592
2018-09-25T06:08:05.847Z,597
2018-09-25T06:09:05.780Z,597
2018-09-25T06:10:05.920Z,602
2018-09-25T06:12:06.158Z,629
2018-09-25T06:13:06.088Z,630
2018-09-25T06:15:06.192Z,654
2018-09-25T06:16:06.253Z,653
2018-09-25T06:17:06.477Z,655
2018-09-25T06:18:06.459Z,654
2018-09-25T06:19:06.502Z,651
2018-09-25T06:20:06.614Z,670
2018-09-25T06:21:06.797Z,669
2018-09-25T06:22:06.782Z,709
2018-09-25T06:23:06.887Z,705
2018-09-25T06:24:06.889Z,707
2018-09-25T06:25:07.049Z,701
2018-09-25T06:26:06.932Z,695
2018-09-25T06:27:06.990Z,701
2018-09-25T06:28:07.148Z,706
2018-09-25T06:29:07.103Z,709
2018-09-25T06:30:07.231Z,719
2018-09-25T06:31:07.281Z,724
2018-09-25T06:32:07.418Z,735
2018-09-25T06:33:07.496Z,751
2018-09-25T06:34:07.530Z,735
2018-09-25T06:35:07.635Z,771
2018-09-25T06:36:07.807Z,780
2018-09-25T06:38:07.822Z,782
2018-09-25T06:39:07.863Z,768
2018-09-25T06:40:07.954Z,782
2018-09-25T06:41:07.962Z,766
2018-09-25T06:42:08.040Z,771
2018-09-25T06:43:08.272Z,779
2018-09-25T06:44:08.152Z,783
2018-09-25T06:45:08.236Z,783
2018-09-25T06:46:08.449Z,811
2018-09-25T06:47:08.394Z,810
2018-09-25T06:48:08.455Z,814
2018-09-25T06:49:08.541Z,812
2018-09-25T06:50:08.857Z,832
2018-09-25T06:51:08.755Z,851
2018-09-25T06:52:08.763Z,825
2018-09-25T06:53:08.768Z,857
2018-09-25T06:54:08.838Z,859
2018-09-25T06:55:08.929Z,841
2018-09-25T06:56:08.947Z,836
2018-09-25T06:57:09.062Z,841
2018-09-25T06:58:09.079Z,835
2018-09-25T06:59:09.077Z,843
2018-09-25T07:00:09.148Z,894
2018-09-25T07:01:09.384Z,923
2018-09-25T07:02:09.277Z,917
2018-09-25T07:03:09.293Z,1117
2018-09-25T07:04:09.416Z,930
2018-09-25T07:05:09.539Z,998
2018-09-25T07:06:09.577Z,1004
2018-09-25T07:07:09.597Z,968
2018-09-25T07:08:09.654Z,1114
2018-09-25T07:09:09.688Z,913
2018-09-25T07:10:10.122Z,1007
2018-09-25T07:11:09.998Z,921
2018-09-25T07:12:10.026Z,937
2018-09-25T07:13:10.073Z,935
2018-09-25T07:14:10.212Z,1001
2018-09-25T07:15:10.289Z,1007
2018-09-25T07:16:10.427Z,1018
2018-09-25T07:17:10.507Z,1020
2018-09-25T07:18:10.501Z,1002
2018-09-25T07:19:10.552Z,1018
2018-09-25T07:20:10.536Z,1191
2018-09-25T07:21:10.772Z,1775
2018-09-25T07:22:11.045Z,1557
2018-09-25T07:23:10.931Z,1625
2018-09-25T07:24:11.009Z,1643
2018-09-25T07:25:11.196Z,1188
2018-09-25T07:26:11.213Z,1188
2018-09-25T07:27:11.192Z,1113
2018-09-25T07:28:11.319Z,1136
2018-09-25T07:29:11.412Z,1132
2018-09-25T07:30:11.495Z,1176
2018-09-25T07:31:11.553Z,1160
2018-09-25T07:32:11.601Z,1146
2018-09-25T07:33:11.822Z,1194
2018-09-25T07:34:11.744Z,1148
2018-09-25T07:35:11.776Z,1131
2018-09-25T07:36:12.002Z,1250
2018-09-25T07:37:11.956Z,1197
2018-09-25T07:38:12.113Z,1180
2018-09-25T07:39:12.128Z,1179
2018-09-25T07:40:12.344Z,1180
2018-09-25T07:41:12.438Z,1173
2018-09-25T07:42:12.496Z,1277
2018-09-25T07:43:12.609Z,1200
2018-09-25T07:44:12.805Z,1329
2018-09-25T07:45:12.767Z,1421
2018-09-25T07:46:12.956Z,1435
2018-09-25T07:47:12.883Z,1501
2018-09-25T07:48:13.266Z,1662
2018-09-25T07:49:13.183Z,1668
2018-09-25T07:50:13.235Z,1898
2018-09-25T07:51:13.368Z,2218
2018-09-25T07:52:13.340Z,2270
2018-09-25T07:53:13.363Z,2270
2018-09-25T07:54:13.403Z,2275
2018-09-25T07:55:13.583Z,2245
2018-09-25T07:56:13.619Z,2229
2018-09-25T07:57:13.640Z,2215
2018-09-25T07:58:13.736Z,2217
2018-09-25T07:59:13.919Z,2175
2018-09-25T08:00:14.026Z,2207
2018-09-25T08:01:14.046Z,2232
2018-09-25T08:02:14.098Z,2227
2018-09-25T08:03:14.387Z,2226
2018-09-25T08:04:14.305Z,2203
2018-09-25T08:05:14.463Z,2100
2018-09-25T08:06:14.378Z,2156
2018-09-25T08:07:14.585Z,2207
2018-09-25T08:08:14.581Z,2223
2018-09-25T08:09:14.624Z,2168
2018-09-25T08:10:14.769Z,2215
2018-09-25T08:11:14.851Z,2211
2018-09-25T08:12:15.028Z,2160
2018-09-25T08:13:14.981Z,2159
2018-09-25T08:14:15.049Z,2194
2018-09-25T08:15:15.241Z,2235
2018-09-25T08:16:16.350Z,2234
2018-09-25T08:17:15.381Z,2237
2018-09-25T08:18:15.376Z,2256
2018-09-25T08:19:15.472Z,2277
2018-09-25T08:20:15.782Z,2236
2018-09-25T08:21:15.710Z,2338
2018-09-25T08:22:15.737Z,2316
2018-09-25T08:23:14.888Z,2292
2018-09-25T08:24:16.031Z,2343
2018-09-25T08:25:16.112Z,2342
2018-09-25T08:26:16.144Z,2422
2018-09-25T08:27:16.241Z,2364
2018-09-25T08:28:16.422Z,2446
2018-09-25T08:29:16.322Z,2454
2018-09-25T08:30:16.334Z,2442
2018-09-25T08:31:16.470Z,2451
2018-09-25T08:32:16.543Z,2488
2018-09-25T08:33:16.516Z,2535
2018-09-25T08:34:16.530Z,2555
2018-09-25T08:35:16.722Z,2566
2018-09-25T08:36:16.633Z,2584
2018-09-25T08:37:16.624Z,2604
2018-09-25T08:38:16.955Z,2623
2018-09-25T08:39:17.055Z,2642
2018-09-25T08:40:16.972Z,2662
2018-09-25T08:41:16.989Z,2679
2018-09-25T08:42:17.172Z,2688
2018-09-25T08:43:17.173Z,2694
2018-09-25T08:44:17.272Z,2704
2018-09-25T08:45:17.402Z,2723
2018-09-25T08:46:17.650Z,2690
2018-09-25T08:47:17.574Z,2735
2018-09-25T08:48:17.751Z,2771
2018-09-25T08:49:17.794Z,2816
2018-09-25T08:50:17.953Z,2734
2018-09-25T08:51:17.979Z,2831
2018-09-25T08:52:18.005Z,2971
2018-09-25T08:53:18.127Z,3040
2018-09-25T08:54:18.124Z,3053
2018-09-25T08:55:18.191Z,2963
2018-09-25T08:56:18.244Z,2955
2018-09-25T08:57:18.522Z,3011
2018-09-25T08:58:18.539Z,2942
2018-09-25T08:59:18.514Z,2948
2018-09-25T09:00:18.631Z,2916
2018-09-25T09:01:18.785Z,2930
2018-09-25T09:02:18.896Z,2927
2018-09-25T09:03:19.077Z,3009
2018-09-25T09:04:19.090Z,2927
2018-09-25T09:05:19.124Z,3045
2018-09-25T09:06:19.088Z,3055
2018-09-25T09:07:19.376Z,3061
2018-09-25T09:08:19.403Z,3053
2018-09-25T09:09:19.373Z,3071
2018-09-25T09:10:19.507Z,3057
2018-09-25T09:11:19.551Z,3052
2018-09-25T09:12:19.511Z,3098
2018-09-25T09:13:19.622Z,3141
2018-09-25T09:14:19.811Z,3135
2018-09-25T09:15:19.719Z,3133
2018-09-25T09:17:19.754Z,3161
2018-09-25T09:18:19.869Z,3208
2018-09-25T09:19:19.898Z,3222
2018-09-25T09:20:20.041Z,3217
2018-09-25T09:21:20.189Z,3205
2018-09-25T09:23:20.274Z,3254
2018-09-25T09:24:20.451Z,3282
2018-09-25T09:25:20.618Z,3233
2018-09-25T09:26:20.596Z,3238
2018-09-25T09:27:20.712Z,3198
2018-09-25T09:28:20.711Z,3219
2018-09-25T09:29:20.941Z,3218
2018-09-25T09:30:20.861Z,3192
2018-09-25T09:31:20.895Z,3253
2018-09-25T09:32:20.977Z,3225
2018-09-25T09:34:20.943Z,3269
2018-09-25T09:35:21.155Z,3235
2018-09-25T09:36:21.201Z,3279
2018-09-25T09:37:21.190Z,3290
2018-09-25T09:38:21.187Z,3240
2018-09-25T09:39:21.324Z,3322
2018-09-25T09:40:21.533Z,3252
2018-09-25T09:41:21.585Z,3295
2018-09-25T09:42:21.534Z,3387
2018-09-25T09:43:21.720Z,3369
2018-09-25T09:44:21.739Z,3346
2018-09-25T09:45:21.805Z,3399
2018-09-25T09:46:22.805Z,3375
2018-09-25T09:47:21.908Z,3420
2018-09-25T09:48:21.857Z,3387
2018-09-25T09:50:18.397Z,3420
2018-09-25T09:51:18.540Z,3440
2018-09-25T09:52:18.497Z,3434
2018-09-25T09:53:18.693Z,3391
2018-09-25T09:54:18.673Z,3445
2018-09-25T09:55:18.874Z,3423
2018-09-25T09:56:18.873Z,3418
2018-09-25T09:57:19.072Z,3485
2018-09-25T10:18:36.240Z,3635
2018-09-25T10:19:36.349Z,3617
2018-09-25T10:20:36.450Z,3659
2018-09-25T10:21:36.493Z,3630
2018-09-25T10:22:36.533Z,3660
2018-09-25T10:23:36.618Z,3668
2018-09-25T10:24:36.647Z,3624
2018-09-25T10:25:36.843Z,3695
2018-09-25T10:26:36.828Z,3659
2018-09-25T10:27:37.112Z,3713
2018-09-25T10:28:37.126Z,3718
2018-09-25T10:29:37.293Z,3726
2018-09-25T10:30:37.261Z,3722
2018-09-25T10:31:37.319Z,3697
2018-09-25T10:32:37.490Z,3723
2018-09-25T10:33:37.477Z,3764
2018-09-25T10:34:37.685Z,3750
2018-09-25T10:35:37.765Z,3776
2018-09-25T10:37:38.781Z,3756
2018-09-25T10:38:37.978Z,3733
2018-09-25T10:39:38.022Z,3787
2018-09-25T10:40:38.156Z,3817
2018-09-25T10:41:38.310Z,3807
2018-09-25T10:42:38.346Z,3824
2018-09-25T10:43:38.400Z,3753
2018-09-25T10:44:38.440Z,3846
2018-09-25T10:45:38.523Z,3879
2018-09-25T10:46:38.526Z,3865
2018-09-25T10:47:38.572Z,3872
2018-09-25T10:48:38.749Z,3759
2018-09-25T10:49:38.738Z,3871
2018-09-25T10:50:38.760Z,3844
2018-09-25T10:51:38.747Z,3852
2018-09-25T10:52:38.913Z,3847
2018-09-25T10:53:39.060Z,3850
2018-09-25T10:54:39.040Z,3826
2018-09-25T10:55:39.052Z,3830
2018-09-25T10:56:39.217Z,3770
2018-09-25T10:57:39.192Z,3819
2018-09-25T10:58:39.295Z,3908
2018-09-25T10:59:39.433Z,3929
2018-09-25T11:00:39.526Z,3922
2018-09-25T11:01:39.503Z,3905
2018-09-25T11:02:39.586Z,3910
2018-09-25T11:03:39.567Z,3923
2018-09-25T11:04:39.748Z,3913
2018-09-25T11:05:39.725Z,3919
2018-09-25T11:06:39.769Z,3917
2018-09-25T11:07:39.937Z,3908
2018-09-25T11:08:39.890Z,3896
2018-09-25T11:09:39.979Z,3889
2018-09-25T11:10:40.049Z,3914
2018-09-25T11:11:40.269Z,3901
2018-09-25T11:12:40.300Z,3999
2018-09-25T11:13:40.535Z,3929
2018-09-25T11:14:40.528Z,3935
2018-09-25T11:15:40.585Z,4002
2018-09-25T11:16:40.599Z,3996
2018-09-25T11:19:54.979Z,4032
2018-09-25T11:20:55.017Z,3977
2018-09-25T11:47:55.242Z,3923
2018-09-25T11:48:55.477Z,3938
2018-09-25T11:49:55.455Z,3876
2018-09-25T11:50:55.445Z,3837
2018-09-25T11:51:55.573Z,3912
2018-09-25T11:52:55.662Z,3904
2018-09-25T11:53:55.618Z,3901
2018-09-25T11:54:55.748Z,3909
2018-09-25T11:55:55.939Z,3895
2018-09-25T11:56:56.058Z,3891
2018-09-25T11:57:56.081Z,3894
2018-09-25T11:58:56.078Z,3898
2018-09-25T11:59:56.355Z,3895
2018-09-25T12:00:56.348Z,3918
2018-09-25T12:01:56.452Z,3796
2018-09-25T12:02:56.554Z,3851
2018-09-25T12:03:56.845Z,3903
2018-09-25T12:04:56.822Z,3907
2018-09-25T12:05:56.831Z,3887
2018-09-25T12:06:56.997Z,3869
2018-09-25T12:07:57.150Z,3912
2018-09-25T12:08:57.006Z,3895
2018-09-25T12:09:57.117Z,3977
2018-09-25T12:10:57.266Z,3909
2018-09-25T12:11:57.308Z,3882
2018-09-25T12:12:57.207Z,3895
2018-09-25T12:13:57.329Z,3985
2018-09-25T12:14:57.617Z,3907
2018-09-25T12:15:57.600Z,3898
2018-09-25T12:16:57.794Z,3897
2018-09-25T12:17:57.831Z,3903
2018-09-25T12:18:57.800Z,3971
2018-09-25T12:19:57.987Z,3977
2018-09-25T12:20:57.944Z,3994
2018-09-25T12:21:58.141Z,3977
2018-09-25T12:22:58.319Z,4007
2018-09-25T12:23:58.335Z,4062
2018-09-25T12:24:58.371Z,4056
2018-09-25T12:25:58.420Z,4200
2018-09-25T12:26:58.417Z,4191
2018-09-25T12:27:58.700Z,4236
2018-09-25T12:28:58.541Z,4260
2018-09-25T12:29:58.606Z,4214
2018-09-25T12:30:58.601Z,4225
2018-09-25T12:31:58.722Z,4236
2018-09-25T12:32:58.805Z,4235
2018-09-25T12:33:58.750Z,4257
2018-09-25T12:34:58.948Z,4296
2018-09-25T12:35:58.822Z,4390
2018-09-25T12:36:58.871Z,4496
2018-09-25T12:37:58.961Z,4478
2018-09-25T12:38:59.097Z,4636
2018-09-25T12:39:59.092Z,4701
2018-09-25T12:40:59.169Z,4822
2018-09-25T12:41:59.284Z,4945
2018-09-25T12:42:59.441Z,5046
2018-09-25T12:43:59.447Z,5098
2018-09-25T12:44:59.461Z,5161
2018-09-25T12:45:59.654Z,5270
2018-09-25T12:46:59.542Z,5276
2018-09-25T12:47:59.695Z,5297
2018-09-25T12:48:59.661Z,5392
2018-09-25T12:49:59.748Z,5485
2018-09-25T12:51:00.738Z,5602
2018-09-25T12:51:59.740Z,5656
2018-09-25T12:53:00.025Z,5867
2018-09-25T12:54:00.029Z,5775
2018-09-25T12:55:00.124Z,5740
2018-09-25T12:56:00.147Z,5736
2018-09-25T12:57:00.299Z,5729
2018-09-25T12:58:00.402Z,5734
2018-09-25T12:59:00.528Z,5750
2018-09-25T13:00:00.498Z,5692
2018-09-25T13:01:00.743Z,5542
2018-09-25T13:02:00.805Z,5841
2018-09-25T13:03:00.962Z,5858
2018-09-25T13:04:00.996Z,5973
2018-09-25T13:05:01.138Z,5964
2018-09-25T13:06:00.993Z,5934
2018-09-25T13:07:01.183Z,5945
2018-09-25T13:08:01.292Z,5930
2018-09-25T13:09:01.109Z,5944
2018-09-25T13:10:01.357Z,5926
2018-09-25T13:11:01.292Z,5937
2018-09-25T13:12:01.334Z,5834
2018-09-25T13:13:01.372Z,5920
2018-09-25T13:14:01.438Z,5977
2018-09-25T13:15:01.667Z,6022
2018-09-25T13:16:01.847Z,5853
2018-09-25T13:17:01.754Z,5860
2018-09-25T13:18:01.861Z,5789
2018-09-25T13:19:01.968Z,5868
2018-09-25T13:20:01.996Z,5904
2018-09-25T13:22:02.119Z,6110
2018-09-25T13:23:02.241Z,5520
2018-09-25T13:24:02.304Z,5728
2018-09-25T13:25:02.449Z,5802
2018-09-25T13:26:02.343Z,5907
2018-09-25T13:27:02.430Z,5911
2018-09-25T13:28:02.442Z,5931
2018-09-25T13:29:02.505Z,5930
2018-09-25T13:30:02.538Z,5853
2018-09-25T13:31:02.701Z,5842
2018-09-25T13:32:02.862Z,5749
2018-09-25T13:33:02.924Z,5808
2018-09-25T13:34:02.954Z,5963
2018-09-25T13:35:03.004Z,5988
2018-09-25T13:36:03.194Z,5875
2018-09-25T13:37:03.092Z,5837
2018-09-25T13:38:03.201Z,5699
2018-09-25T13:39:03.229Z,5508
2018-09-25T13:40:03.387Z,5501
2018-09-25T13:41:03.372Z,5495
2018-09-25T13:42:03.380Z,5486
2018-09-25T13:43:03.515Z,5551
2018-09-25T13:44:03.462Z,5694
2018-09-25T13:45:03.597Z,5594
2018-09-25T13:46:03.677Z,5753
2018-09-25T13:47:03.753Z,5763
2018-09-25T13:48:03.773Z,5762
2018-09-25T13:49:03.962Z,5811
2018-09-25T13:50:03.980Z,5900
2018-09-25T13:51:05.072Z,5893
2018-09-25T13:52:04.102Z,5723
2018-09-25T13:53:04.235Z,5776
2018-09-25T13:54:04.297Z,5434
2018-09-25T13:55:04.330Z,5598
2018-09-25T13:56:04.399Z,5643
2018-09-25T13:57:04.272Z,5649
2018-09-25T13:58:04.471Z,5685
2018-09-25T13:59:04.601Z,5736
2018-09-25T14:00:04.539Z,5720
2018-09-25T14:01:04.659Z,5687
2018-09-25T14:02:04.681Z,5464
2018-09-25T14:03:04.782Z,5534
2018-09-25T14:04:04.820Z,5472
2018-09-25T14:05:04.938Z,5697
2018-09-25T14:06:04.946Z,5809
2018-09-25T14:07:05.042Z,5990
2018-09-25T14:08:05.066Z,6330
2018-09-25T14:09:05.212Z,6756
2018-09-25T14:10:05.185Z,7018
2018-09-25T14:11:05.291Z,7076
2018-09-25T14:12:05.518Z,7088
2018-09-25T14:13:05.348Z,7078
2018-09-25T14:14:05.349Z,7091
2018-09-25T14:15:05.417Z,7123
2018-09-25T14:17:05.513Z,7118
2018-09-25T14:18:05.610Z,7086
2018-09-25T14:21:21.380Z,6740
2018-09-25T14:22:21.493Z,6414
2018-09-25T14:23:21.719Z,6005
2018-09-25T14:24:21.611Z,5619
2018-09-25T14:25:21.644Z,5629
2018-09-25T14:26:21.712Z,5628
2018-09-25T14:49:42.934Z,5179
2018-09-25T14:50:42.934Z,5291
2018-09-25T14:51:43.086Z,5470
2018-09-25T14:52:44.115Z,5436
2018-09-25T14:53:43.140Z,5596
2018-09-25T14:54:43.196Z,5872
2018-09-25T14:55:43.257Z,6048
2018-09-25T14:56:43.289Z,7234
2018-09-25T14:57:43.437Z,16576
2018-09-25T14:58:43.567Z,10731
2018-09-25T14:59:43.648Z,12640
2018-09-25T15:00:43.809Z,65535
2018-09-25T15:02:44.867Z,65535
2018-09-25T15:03:44.173Z,65535
2018-09-25T15:04:44.197Z,65535
2018-09-25T15:05:44.151Z,65535
2018-09-25T15:06:44.304Z,65535
2018-09-25T15:07:44.447Z,65535
2018-09-25T15:08:44.284Z,65535
2018-09-25T15:09:44.484Z,65535
2018-09-25T15:10:44.592Z,65535
2018-09-25T15:11:45.056Z,65535
2018-09-25T15:12:44.559Z,65535
2018-09-25T15:14:44.752Z,65535
2018-09-25T15:15:44.737Z,65535
2018-09-25T15:16:45.914Z,65535
2018-09-25T15:17:44.836Z,65535
2018-09-25T15:18:45.020Z,65535
2018-09-25T15:19:44.949Z,65535
2018-09-25T15:20:45.135Z,65535
2018-09-25T15:22:45.264Z,65535
2018-09-25T15:23:45.317Z,65535
2018-09-25T15:24:46.325Z,65535
2018-09-25T15:25:45.505Z,65535
2018-09-25T15:26:45.550Z,65535
2018-09-25T15:27:45.668Z,65535
2018-09-25T15:28:45.656Z,65535
2018-09-25T15:29:45.786Z,65535
2018-09-25T15:30:46.328Z,65535
2018-09-25T15:31:46.125Z,65535
2018-09-25T15:32:46.206Z,65535
2018-09-25T15:33:46.100Z,65535
2018-09-25T15:34:46.238Z,65535
2018-09-25T15:35:46.559Z,65535
2018-09-25T15:36:46.351Z,65535
2018-09-25T15:37:47.476Z,57824
2018-09-25T15:38:46.458Z,58512
2018-09-25T15:39:46.701Z,64920
2018-09-25T15:40:47.633Z,65535
2018-09-25T15:41:46.712Z,65535
2018-09-25T15:42:46.872Z,65535
2018-09-25T15:43:46.812Z,65535
2018-09-25T15:44:46.829Z,65535